createdAt,value
2022-12-25T00:00:54.162Z,13.63
2022-12-25T00:03:21.787Z,12.30
2022-12-25T00:05:48.550Z,13.70
2022-12-25T00:08:15.285Z,13.77
2022-12-25T00:10:45.180Z,13.03
2022-12-25T00:13:12.382Z,13.53
2022-12-25T00:15:40.524Z,13.50
2022-12-25T00:18:07.196Z,12.87
2022-12-25T00:20:34.838Z,12.77
2022-12-25T00:23:01.634Z,14.67
2022-12-25T00:25:28.420Z,13.50
2022-12-25T00:27:55.021Z,13.53
2022-12-25T00:30:21.604Z,14.10
2022-12-25T00:32:48.542Z,13.13
2022-12-25T00:35:15.388Z,12.63
2022-12-25T00:37:42.759Z,13.67
2022-12-25T00:40:10.227Z,15.53
2022-12-25T00:42:36.876Z,15.03
2022-12-25T00:45:05.085Z,13.27
2022-12-25T00:47:31.717Z,13.10
2022-12-25T00:49:58.416Z,13.53
2022-12-25T00:52:25.115Z,14.07
2022-12-25T00:54:52.433Z,15.43
2022-12-25T00:57:19.040Z,14.53
2022-12-25T00:59:45.681Z,14.43
2022-12-25T01:02:24.579Z,13.93
2022-12-25T01:04:53.474Z,13.73
2022-12-25T01:07:21.798Z,14.83
2022-12-25T01:10:07.074Z,14.97
2022-12-25T01:12:37.147Z,15.40
2022-12-25T01:15:05.459Z,13.77
2022-12-25T01:17:32.364Z,15.53
2022-12-25T01:19:59.031Z,14.77
2022-12-25T01:22:25.969Z,16.00
2022-12-25T01:24:55.126Z,14.63
2022-12-25T01:27:21.912Z,17.93
2022-12-25T01:29:49.203Z,19.90
2022-12-25T01:32:15.947Z,22.03
2022-12-25T01:34:42.607Z,19.33
2022-12-25T01:37:10.349Z,18.60
2022-12-25T01:39:37.141Z,17.90
2022-12-25T01:42:04.114Z,19.67
2022-12-25T01:45:08.429Z,17.47
2022-12-25T01:47:35.746Z,17.70
2022-12-25T01:50:02.476Z,19.43
2022-12-25T01:52:31.039Z,25.97
2022-12-25T01:55:03.202Z,22.80
2022-12-25T01:57:34.070Z,21.30
2022-12-25T02:00:01.686Z,21.33
2022-12-25T02:02:28.974Z,16.00
2022-12-25T02:05:01.118Z,16.20
2022-12-25T02:07:29.425Z,18.20
2022-12-25T02:09:56.142Z,17.37
2022-12-25T02:12:26.108Z,19.43
2022-12-25T02:14:59.644Z,18.33
2022-12-25T02:17:37.681Z,16.03
2022-12-25T02:20:43.360Z,14.27
2022-12-25T02:23:31.005Z,14.40
2022-12-25T02:26:13.142Z,14.80
2022-12-25T02:28:47.207Z,15.27
2022-12-25T02:31:18.119Z,17.30
2022-12-25T02:34:03.077Z,15.87
2022-12-25T02:36:37.489Z,16.90
2022-12-25T02:39:28.488Z,16.07
2022-12-25T02:42:00.200Z,16.27
2022-12-25T02:44:56.675Z,17.27
2022-12-25T02:47:42.767Z,16.40
2022-12-25T02:50:28.836Z,16.93
2022-12-25T02:53:15.093Z,16.90
2022-12-25T02:56:02.935Z,13.37
2022-12-25T02:58:49.863Z,15.23
2022-12-25T03:01:38.294Z,14.23
2022-12-25T03:04:26.888Z,13.63
2022-12-25T03:07:08.588Z,14.73
2022-12-25T03:09:58.482Z,13.70
2022-12-25T03:12:35.554Z,14.30
2022-12-25T03:15:21.982Z,13.87
2022-12-25T03:17:49.563Z,12.83
2022-12-25T03:20:34.721Z,12.30
2022-12-25T03:23:20.288Z,12.03
2022-12-25T03:26:05.275Z,11.53
2022-12-25T03:28:31.983Z,12.50
2022-12-25T03:31:13.669Z,12.77
2022-12-25T03:34:16.191Z,12.17
2022-12-25T03:36:58.386Z,12.47
2022-12-25T03:39:53.738Z,12.43
2022-12-25T03:42:48.483Z,14.57
2022-12-25T03:45:40.039Z,11.43
2022-12-25T03:48:28.389Z,11.53
2022-12-25T03:51:19.859Z,10.27
2022-12-25T03:54:09.440Z,11.93
2022-12-25T03:56:56.646Z,12.17
2022-12-25T03:59:42.706Z,12.53
2022-12-25T04:02:33.332Z,11.30
2022-12-25T04:05:23.549Z,11.70
2022-12-25T04:08:09.906Z,11.70
2022-12-25T04:10:55.718Z,11.90
2022-12-25T04:13:41.131Z,12.23
2022-12-25T04:16:26.344Z,12.43
2022-12-25T04:19:11.525Z,10.60
2022-12-25T04:21:56.828Z,9.37
2022-12-25T04:24:42.756Z,9.27
2022-12-25T04:27:27.940Z,11.00
2022-12-25T04:30:13.063Z,9.80
2022-12-25T04:33:00.589Z,11.57
2022-12-25T04:35:45.963Z,10.70
2022-12-25T04:38:12.954Z,10.87
2022-12-25T04:40:41.082Z,10.80
2022-12-25T04:43:07.974Z,10.97
2022-12-25T04:45:34.825Z,9.63
2022-12-25T04:48:01.522Z,11.00
2022-12-25T04:50:28.310Z,11.27
2022-12-25T04:52:55.010Z,12.00
2022-12-25T04:55:21.792Z,13.73
2022-12-25T04:57:49.128Z,13.90
2022-12-25T05:00:16.737Z,10.73
2022-12-25T05:02:43.666Z,10.73
2022-12-25T05:05:10.465Z,10.40
2022-12-25T05:07:37.241Z,14.07
2022-12-25T05:10:04.326Z,12.50
2022-12-25T05:12:31.115Z,13.17
2022-12-25T05:14:58.439Z,12.67
2022-12-25T05:17:25.099Z,12.83
2022-12-25T05:19:51.781Z,12.50
2022-12-25T05:22:18.481Z,11.33
2022-12-25T05:24:45.274Z,11.70
2022-12-25T05:27:11.940Z,11.47
2022-12-25T05:29:38.636Z,12.83
2022-12-25T05:32:06.262Z,12.67
2022-12-25T05:34:32.988Z,13.17
2022-12-25T05:36:59.633Z,13.00
2022-12-25T05:39:26.293Z,12.90
2022-12-25T05:41:53.014Z,12.30
2022-12-25T05:44:19.779Z,11.47
2022-12-25T05:46:46.569Z,12.50
2022-12-25T05:49:14.067Z,11.73
2022-12-25T05:51:40.724Z,12.70
2022-12-25T05:54:07.457Z,11.33
2022-12-25T05:56:34.379Z,11.60
2022-12-25T05:59:01.077Z,11.17
2022-12-25T06:01:28.714Z,11.37
2022-12-25T06:03:56.313Z,12.43
2022-12-25T06:06:23.827Z,12.90
2022-12-25T06:08:52.809Z,12.53
2022-12-25T06:11:19.432Z,14.00
2022-12-25T06:13:49.654Z,14.33
2022-12-25T06:16:16.420Z,15.43
2022-12-25T06:18:46.341Z,14.87
2022-12-25T06:21:14.696Z,13.93
2022-12-25T06:23:42.723Z,13.63
2022-12-25T06:26:11.124Z,12.07
2022-12-25T06:28:38.095Z,11.47
2022-12-25T06:31:09.184Z,10.00
2022-12-25T06:33:36.668Z,12.60
2022-12-25T06:36:07.512Z,12.90
2022-12-25T06:38:34.533Z,13.33
2022-12-25T06:41:04.826Z,12.53
2022-12-25T06:43:31.620Z,11.73
2022-12-25T06:46:02.424Z,11.53
2022-12-25T06:48:29.095Z,12.40
2022-12-25T06:50:55.804Z,10.93
2022-12-25T06:53:22.511Z,11.30
2022-12-25T06:55:49.246Z,11.73
2022-12-25T06:58:16.719Z,12.57
2022-12-25T07:00:43.419Z,12.70
2022-12-25T07:03:16.152Z,10.90
2022-12-25T07:05:44.269Z,14.47
2022-12-25T07:08:10.940Z,12.60
2022-12-25T07:10:37.587Z,12.20
2022-12-25T07:13:04.368Z,10.60
2022-12-25T07:15:31.817Z,12.20
2022-12-25T07:17:58.548Z,12.40
2022-12-25T07:20:25.591Z,12.27
2022-12-25T07:22:52.337Z,12.23
2022-12-25T07:25:19.301Z,13.87
2022-12-25T07:27:46.069Z,12.97
2022-12-25T07:30:13.588Z,11.30
2022-12-25T07:32:44.324Z,12.13
2022-12-25T07:35:15.242Z,18.13
2022-12-25T07:37:41.881Z,17.93
2022-12-25T07:40:09.852Z,14.60
2022-12-25T07:42:36.557Z,14.23
2022-12-25T07:45:03.966Z,20.77
2022-12-25T07:47:30.676Z,18.00
2022-12-25T07:49:58.044Z,15.43
2022-12-25T07:52:24.798Z,13.97
2022-12-25T07:54:51.630Z,13.17
2022-12-25T07:57:18.334Z,11.17
2022-12-25T07:59:45.079Z,11.70
2022-12-25T08:02:11.815Z,13.20
2022-12-25T08:04:38.663Z,13.37
2022-12-25T08:07:06.045Z,12.83
2022-12-25T08:09:32.681Z,13.27
2022-12-25T08:11:59.328Z,11.77
2022-12-25T08:14:26.178Z,12.43
2022-12-25T08:16:52.915Z,12.90
2022-12-25T08:19:19.730Z,11.73
2022-12-25T08:21:46.415Z,12.20
2022-12-25T08:24:13.746Z,11.60
2022-12-25T08:26:40.497Z,11.17
2022-12-25T08:29:07.179Z,11.77
2022-12-25T08:31:34.360Z,13.07
2022-12-25T08:34:02.655Z,12.57
2022-12-25T08:36:29.698Z,11.17
2022-12-25T08:39:02.432Z,11.77
2022-12-25T08:41:30.847Z,11.37
2022-12-25T08:43:57.906Z,12.10
2022-12-25T08:46:24.738Z,11.07
2022-12-25T08:48:51.537Z,11.00
2022-12-25T08:51:20.200Z,11.40
2022-12-25T08:53:48.930Z,9.97
2022-12-25T08:56:16.170Z,12.13
2022-12-25T08:58:43.943Z,11.57
2022-12-25T09:01:11.118Z,12.20
2022-12-25T09:03:38.058Z,11.90
2022-12-25T09:06:06.755Z,12.03
2022-12-25T09:08:38.866Z,13.70
2022-12-25T09:11:11.721Z,12.83
2022-12-25T09:13:39.014Z,12.90
2022-12-25T09:16:07.307Z,12.53
2022-12-25T09:18:34.110Z,12.03
2022-12-25T09:21:03.457Z,12.33
2022-12-25T09:23:31.073Z,10.13
2022-12-25T09:25:58.757Z,9.93
2022-12-25T09:28:25.593Z,9.93
2022-12-25T09:30:52.738Z,10.87
2022-12-25T09:33:20.376Z,11.83
2022-12-25T09:35:53.603Z,12.40
2022-12-25T09:38:21.661Z,12.67
2022-12-25T09:40:49.191Z,12.30
2022-12-25T09:43:18.900Z,12.90
2022-12-25T09:45:45.819Z,10.60
2022-12-25T09:48:14.483Z,11.93
2022-12-25T09:50:47.411Z,11.00
2022-12-25T09:53:18.698Z,11.57
2022-12-25T09:55:52.584Z,11.23
2022-12-25T09:58:19.490Z,11.30
2022-12-25T10:00:52.687Z,13.33
2022-12-25T10:03:28.012Z,11.90
2022-12-25T10:06:10.558Z,10.93
2022-12-25T10:08:55.584Z,12.50
2022-12-25T10:11:33.250Z,12.10
2022-12-25T10:14:11.866Z,12.37
2022-12-25T10:16:49.451Z,11.03
2022-12-25T10:19:29.005Z,12.73
2022-12-25T10:22:00.263Z,12.80
2022-12-25T10:24:33.645Z,11.97
2022-12-25T10:27:02.517Z,12.73
2022-12-25T10:29:32.442Z,15.10
2022-12-25T10:31:59.424Z,14.57
2022-12-25T10:34:28.162Z,15.07
2022-12-25T10:36:55.159Z,14.83
2022-12-25T10:39:25.299Z,14.63
2022-12-25T10:42:08.904Z,13.20
2022-12-25T10:44:35.612Z,13.30
2022-12-25T10:47:05.301Z,13.00
2022-12-25T10:49:35.021Z,14.23
2022-12-25T10:52:03.181Z,13.10
2022-12-25T10:54:33.117Z,12.03
2022-12-25T10:57:03.910Z,12.43
2022-12-25T10:59:35.185Z,12.90
2022-12-25T11:02:12.869Z,12.47
2022-12-25T11:04:39.662Z,11.03
2022-12-25T11:07:14.686Z,12.70
2022-12-25T11:09:49.823Z,11.63
2022-12-25T11:12:19.320Z,12.77
2022-12-25T11:14:54.039Z,12.17
2022-12-25T11:17:23.999Z,14.17
2022-12-25T11:19:55.035Z,13.13
2022-12-25T11:22:21.718Z,13.43
2022-12-25T11:24:49.276Z,13.33
2022-12-25T11:27:24.043Z,13.00
2022-12-25T11:29:54.831Z,13.83
2022-12-25T11:32:25.909Z,12.90
2022-12-25T11:34:53.623Z,12.47
2022-12-25T11:37:24.677Z,11.50
2022-12-25T11:39:52.213Z,13.57
2022-12-25T11:42:24.114Z,13.43
2022-12-25T11:44:55.489Z,13.70
2022-12-25T11:47:25.758Z,14.37
2022-12-25T11:50:00.956Z,14.20
2022-12-25T11:52:33.447Z,13.53
2022-12-25T11:55:05.194Z,14.80
2022-12-25T11:57:35.005Z,12.30
2022-12-25T12:00:05.969Z,12.13
2022-12-25T12:02:38.913Z,13.03
2022-12-25T12:05:17.666Z,12.53
2022-12-25T12:07:54.715Z,13.23
2022-12-25T12:10:29.662Z,12.67
2022-12-25T12:13:07.144Z,13.43
2022-12-25T12:15:41.486Z,12.33
2022-12-25T12:18:09.365Z,11.10
2022-12-25T12:20:37.052Z,11.37
2022-12-25T12:23:15.709Z,11.73
2022-12-25T12:25:44.391Z,10.63
2022-12-25T12:28:19.885Z,11.03
2022-12-25T12:30:57.438Z,10.67
2022-12-25T12:33:28.169Z,13.10
2022-12-25T12:35:55.401Z,17.37
2022-12-25T12:38:28.940Z,11.87
2022-12-25T12:40:59.124Z,11.50
2022-12-25T12:43:34.674Z,10.47
2022-12-25T12:46:06.681Z,10.00
2022-12-25T12:48:40.398Z,9.43
2022-12-25T12:51:09.001Z,12.07
2022-12-25T12:53:37.883Z,10.00
2022-12-25T12:56:14.076Z,10.97
2022-12-25T12:58:47.587Z,10.57
2022-12-25T13:01:27.772Z,9.77
2022-12-25T13:04:31.775Z,11.60
2022-12-25T13:07:05.338Z,10.33
2022-12-25T13:09:49.515Z,9.77
2022-12-25T13:12:17.727Z,10.57
2022-12-25T13:14:45.925Z,10.03
2022-12-25T13:17:16.743Z,9.73
2022-12-25T13:19:44.990Z,9.20
2022-12-25T13:22:26.273Z,10.07
2022-12-25T13:24:57.877Z,8.77
2022-12-25T13:27:27.151Z,9.57
2022-12-25T13:29:53.829Z,8.77
2022-12-25T13:32:24.027Z,8.77
2022-12-25T13:34:52.369Z,9.37
2022-12-25T13:37:21.714Z,9.70
2022-12-25T13:39:51.849Z,9.90
2022-12-25T13:42:20.825Z,9.87
2022-12-25T13:44:50.483Z,9.50
2022-12-25T13:47:23.923Z,10.83
2022-12-25T13:49:51.905Z,11.23
2022-12-25T13:52:21.121Z,11.27
2022-12-25T13:54:59.210Z,12.60
2022-12-25T13:57:30.561Z,12.97
2022-12-25T13:59:58.570Z,12.43
2022-12-25T14:02:30.655Z,11.90
2022-12-25T14:04:57.644Z,12.03
2022-12-25T14:07:25.251Z,14.20
2022-12-25T14:09:57.275Z,12.93
2022-12-25T14:12:25.386Z,12.33
2022-12-25T14:14:53.325Z,13.17
2022-12-25T14:17:21.928Z,13.20
2022-12-25T14:20:05.722Z,12.80
2022-12-25T14:22:37.158Z,11.67
2022-12-25T14:25:14.586Z,12.80
2022-12-25T14:27:47.532Z,13.13
2022-12-25T14:30:14.617Z,13.27
2022-12-25T14:32:45.960Z,12.07
2022-12-25T14:35:18.198Z,12.87
2022-12-25T14:37:50.251Z,13.90
2022-12-25T14:40:22.146Z,12.70
2022-12-25T14:42:55.220Z,14.67
2022-12-25T14:45:27.169Z,13.67
2022-12-25T14:47:56.380Z,13.60
2022-12-25T14:50:28.765Z,13.97
2022-12-25T14:52:56.208Z,14.40
2022-12-25T14:55:24.718Z,15.63
2022-12-25T14:57:53.232Z,14.90
2022-12-25T15:00:26.466Z,12.33
2022-12-25T15:02:56.313Z,12.60
2022-12-25T15:05:30.720Z,14.20
2022-12-25T15:08:17.746Z,12.30
2022-12-25T15:10:59.582Z,13.33
2022-12-25T15:13:28.462Z,12.77
2022-12-25T15:15:59.292Z,11.40
2022-12-25T15:18:31.421Z,13.17
2022-12-25T15:20:58.321Z,11.87
2022-12-25T15:23:25.086Z,13.33
2022-12-25T15:25:52.055Z,13.63
2022-12-25T15:28:19.030Z,12.77
2022-12-25T15:30:45.995Z,11.30
2022-12-25T15:33:15.116Z,12.80
2022-12-25T15:35:43.594Z,13.40
2022-12-25T15:38:10.876Z,12.63
2022-12-25T15:40:38.039Z,11.80
2022-12-25T15:43:11.397Z,12.33
2022-12-25T15:45:47.583Z,11.57
2022-12-25T15:48:14.204Z,12.03
2022-12-25T15:50:40.855Z,13.00
2022-12-25T15:53:12.722Z,13.47
2022-12-25T15:55:42.609Z,15.20
2022-12-25T15:58:12.040Z,14.03
2022-12-25T16:00:38.659Z,13.10
2022-12-25T16:03:07.975Z,13.20
2022-12-25T16:05:34.940Z,12.63
2022-12-25T16:08:01.557Z,12.70
2022-12-25T16:10:34.836Z,12.13
2022-12-25T16:13:14.361Z,13.23
2022-12-25T16:15:41.272Z,12.20
2022-12-25T16:18:10.329Z,11.83
2022-12-25T16:20:37.065Z,12.90
2022-12-25T16:23:04.063Z,14.00
2022-12-25T16:25:31.465Z,12.13
2022-12-25T16:27:58.070Z,14.50
2022-12-25T16:30:24.748Z,13.90
2022-12-25T16:32:51.581Z,14.77
2022-12-25T16:35:22.441Z,14.40
2022-12-25T16:37:49.053Z,13.87
2022-12-25T16:40:17.116Z,13.90
2022-12-25T16:42:44.473Z,12.27
2022-12-25T16:45:11.472Z,13.17
2022-12-25T16:47:38.080Z,13.63
2022-12-25T16:50:06.424Z,13.10
2022-12-25T16:52:34.093Z,14.27
2022-12-25T16:55:01.757Z,13.67
2022-12-25T16:57:28.986Z,13.27
2022-12-25T16:59:56.333Z,13.83
2022-12-25T17:02:23.178Z,12.97
2022-12-25T17:04:50.210Z,12.73
2022-12-25T17:07:17.740Z,14.37
2022-12-25T17:09:47.708Z,13.30
2022-12-25T17:12:14.691Z,14.63
2022-12-25T17:14:41.846Z,15.20
2022-12-25T17:17:09.600Z,14.13
2022-12-25T17:19:36.248Z,12.93
2022-12-25T17:22:02.903Z,13.87
2022-12-25T17:24:29.627Z,13.47
2022-12-25T17:26:56.299Z,13.60
2022-12-25T17:29:24.473Z,12.80
2022-12-25T17:31:51.528Z,12.80
2022-12-25T17:34:19.051Z,12.70
2022-12-25T17:36:46.103Z,12.83
2022-12-25T17:39:12.873Z,16.87
2022-12-25T17:41:39.533Z,19.27
2022-12-25T17:44:06.323Z,14.57
2022-12-25T17:46:33.114Z,12.90
2022-12-25T17:49:00.549Z,15.97
2022-12-25T17:51:29.717Z,16.90
2022-12-25T17:53:58.294Z,20.67
2022-12-25T17:56:25.461Z,17.53
2022-12-25T17:58:54.055Z,13.90
2022-12-25T18:01:21.727Z,13.37
2022-12-25T18:03:57.673Z,14.17
2022-12-25T18:06:38.869Z,13.83
2022-12-25T18:09:06.066Z,17.43
2022-12-25T18:11:33.230Z,14.27
2022-12-25T18:14:01.574Z,14.57
2022-12-25T18:16:31.781Z,15.03
2022-12-25T18:18:59.176Z,15.47
2022-12-25T18:21:26.865Z,13.90
2022-12-25T18:23:54.168Z,14.90
2022-12-25T18:26:21.365Z,14.50
2022-12-25T18:28:48.706Z,14.30
2022-12-25T18:31:18.596Z,14.00
2022-12-25T18:33:45.907Z,13.30
2022-12-25T18:36:14.312Z,14.93
2022-12-25T18:38:41.301Z,16.03
2022-12-25T18:41:10.473Z,15.03
2022-12-25T18:43:53.961Z,14.80
2022-12-25T18:46:23.236Z,14.53
2022-12-25T18:48:49.891Z,16.00
2022-12-25T18:51:16.551Z,16.00
2022-12-25T18:53:43.487Z,16.13
2022-12-25T18:56:13.043Z,16.47
2022-12-25T18:58:40.817Z,16.27
2022-12-25T19:01:14.722Z,15.83
2022-12-25T19:03:41.471Z,15.63
2022-12-25T19:06:08.587Z,16.37
2022-12-25T19:08:35.560Z,16.17
2022-12-25T19:11:07.530Z,15.23
2022-12-25T19:13:35.217Z,15.87
2022-12-25T19:16:02.023Z,16.07
2022-12-25T19:18:28.912Z,16.30
2022-12-25T19:20:55.768Z,16.37
2022-12-25T19:23:22.622Z,15.27
2022-12-25T19:25:49.406Z,17.70
2022-12-25T19:28:17.014Z,14.63
2022-12-25T19:30:44.831Z,15.93
2022-12-25T19:33:17.491Z,15.03
2022-12-25T19:35:46.107Z,15.57
2022-12-25T19:38:12.753Z,16.97
2022-12-25T19:40:59.263Z,17.40
2022-12-25T19:43:26.801Z,16.87
2022-12-25T19:45:54.314Z,16.20
2022-12-25T19:48:21.110Z,17.70
2022-12-25T19:50:47.835Z,16.83
2022-12-25T19:53:16.241Z,18.60
2022-12-25T19:55:43.080Z,18.23
2022-12-25T19:58:09.793Z,16.40
2022-12-25T20:00:37.253Z,17.53
2022-12-25T20:03:04.713Z,18.30
2022-12-25T20:05:31.698Z,17.93
2022-12-25T20:07:58.451Z,17.77
2022-12-25T20:10:25.177Z,19.30
2022-12-25T20:12:53.113Z,18.43
2022-12-25T20:15:20.156Z,18.13
2022-12-25T20:17:46.882Z,19.87
2022-12-25T20:20:14.200Z,18.70
2022-12-25T20:22:40.851Z,19.57
2022-12-25T20:25:10.339Z,19.33
2022-12-25T20:27:36.947Z,21.37
2022-12-25T20:30:04.357Z,19.37
2022-12-25T20:32:31.008Z,19.07
2022-12-25T20:34:57.649Z,19.93
2022-12-25T20:37:24.960Z,21.13
2022-12-25T20:39:58.153Z,22.47
2022-12-25T20:42:24.835Z,21.00
2022-12-25T20:44:51.617Z,20.53
2022-12-25T20:47:18.284Z,21.10
2022-12-25T20:49:46.698Z,21.93
2022-12-25T20:52:13.357Z,22.43
2022-12-25T20:54:43.569Z,20.33
2022-12-25T20:57:13.144Z,20.63
2022-12-25T20:59:45.459Z,22.80
2022-12-25T21:02:34.179Z,19.87
2022-12-25T21:04:58.893Z,20.73
2022-12-25T21:07:25.567Z,19.73
2022-12-25T21:09:52.811Z,19.73
2022-12-25T21:12:19.508Z,18.57
2022-12-25T21:14:46.126Z,18.53
2022-12-25T21:17:13.274Z,19.20
2022-12-25T21:19:39.972Z,19.70
2022-12-25T21:22:06.618Z,19.03
2022-12-25T21:24:33.239Z,19.80
2022-12-25T21:27:00.563Z,19.53
2022-12-25T21:29:27.457Z,17.83
2022-12-25T21:32:12.484Z,19.27
2022-12-25T21:34:39.119Z,19.00
2022-12-25T21:37:05.996Z,18.33
2022-12-25T21:39:32.810Z,19.20
2022-12-25T21:42:00.093Z,18.57
2022-12-25T21:44:26.721Z,17.77
2022-12-25T21:46:53.447Z,19.80
2022-12-25T21:49:34.965Z,18.07
2022-12-25T21:52:07.583Z,19.07
2022-12-25T21:54:34.626Z,19.37
2022-12-25T21:57:02.391Z,19.60
2022-12-25T21:59:28.967Z,18.17
2022-12-25T22:01:55.725Z,19.67
2022-12-25T22:04:23.137Z,18.73
2022-12-25T22:07:08.059Z,17.47
2022-12-25T22:09:34.868Z,20.17
2022-12-25T22:12:20.898Z,18.63
2022-12-25T22:14:54.144Z,18.97
2022-12-25T22:17:42.058Z,19.00
2022-12-25T22:20:11.015Z,20.07
2022-12-25T22:22:37.722Z,21.70
2022-12-25T22:25:06.237Z,23.57
2022-12-25T22:27:35.026Z,19.13
2022-12-25T22:30:02.112Z,18.13
2022-12-25T22:32:28.947Z,19.47
2022-12-25T22:34:55.640Z,20.43
2022-12-25T22:37:22.369Z,19.50
2022-12-25T22:39:49.089Z,20.07
2022-12-25T22:42:15.864Z,17.57
2022-12-25T22:44:43.458Z,16.90
2022-12-25T22:47:10.220Z,17.37
2022-12-25T22:49:37.079Z,17.37
2022-12-25T22:52:04.068Z,17.73
2022-12-25T22:54:31.706Z,16.40
2022-12-25T22:56:58.841Z,16.80
2022-12-25T22:59:25.670Z,16.63
2022-12-25T23:01:53.291Z,16.40
2022-12-25T23:04:20.176Z,16.00
2022-12-25T23:06:47.000Z,14.90
2022-12-25T23:09:22.117Z,13.87
2022-12-25T23:11:51.029Z,14.67
2022-12-25T23:14:36.090Z,14.37
2022-12-25T23:17:03.401Z,13.03
2022-12-25T23:19:48.166Z,13.67
2022-12-25T23:22:33.378Z,13.07
2022-12-25T23:25:18.216Z,12.30
2022-12-25T23:27:45.303Z,13.17
2022-12-25T23:30:13.196Z,12.60
2022-12-25T23:32:41.395Z,12.50
2022-12-25T23:35:08.556Z,11.90
2022-12-25T23:37:35.232Z,11.80
2022-12-25T23:40:02.086Z,11.87
2022-12-25T23:42:28.778Z,13.10
2022-12-25T23:44:55.418Z,11.67
2022-12-25T23:47:22.347Z,11.77
2022-12-25T23:49:49.628Z,11.37
2022-12-25T23:52:16.286Z,11.60
2022-12-25T23:54:42.940Z,9.80
2022-12-25T23:57:09.863Z,10.17
2022-12-25T23:59:36.592Z,9.97
